Time;durP1;ratioP1;P1;durP2;ratioP2;P2;SDS_P1;SDS_P2;PMS_P1;PMS_P2;Temp;Humidity;BMP_temperature;BMP_pressure;BME280_temperature;BME280_humidity;BME280_pressure;Samples;Min_cycle;Max_cycle;Signal;HPM_P1;HPM_P2
2021/01/12 00:00:00;;;;;;;171.93;72.80;;;26.10;2201.60;;;;;;5036002;28;20022;-59
2021/01/12 00:02:26;;;;;;;177.70;70.20;;;26.10;2201.60;;;;;;5034543;28;20432;-60
2021/01/12 00:04:53;;;;;;;177.63;69.85;;;26.10;2201.60;;;;;;5035994;28;20104;-60
2021/01/12 00:07:23;;;;;;;215.32;79.95;;;26.20;2201.60;;;;;;5035727;28;20045;-59
2021/01/12 00:09:51;;;;;;;199.30;76.03;;;26.20;2201.60;;;;;;5035391;28;20032;-63
2021/01/12 00:12:18;;;;;;;229.50;85.63;;;26.20;2201.60;;;;;;5035140;28;20036;-59
2021/01/12 00:14:44;;;;;;;186.00;75.35;;;26.20;2201.60;;;;;;5035663;28;20490;-59
2021/01/12 00:17:10;;;;;;;157.52;64.90;;;26.10;2201.60;;;;;;5035401;28;20034;-60
2021/01/12 00:19:37;;;;;;;129.60;58.05;;;26.10;2201.60;;;;;;5016932;28;20037;-58
2021/01/12 00:22:08;;;;;;;142.32;58.05;;;26.00;2201.60;;;;;;5035339;28;20109;-58
2021/01/12 00:24:36;;;;;;;140.70;62.80;;;26.10;2201.60;;;;;;5035534;28;20104;-59
2021/01/12 00:27:02;;;;;;;115.10;50.28;;;26.10;2201.60;;;;;;5034725;28;20037;-59
2021/01/12 00:29:32;;;;;;;123.30;52.83;;;26.10;2201.60;;;;;;5035265;28;20083;-58
2021/01/12 00:31:57;;;;;;;191.05;74.63;;;26.10;2201.60;;;;;;5034972;28;20560;-59
2021/01/12 00:34:23;;;;;;;196.27;79.00;;;26.10;2201.60;;;;;;5035335;28;20112;-59
2021/01/12 00:36:51;;;;;;;146.10;59.75;;;26.10;2201.60;;;;;;5035068;28;20075;-59
2021/01/12 00:39:18;;;;;;;146.98;58.97;;;26.20;2201.60;;;;;;5033765;28;20021;-59
2021/01/12 00:42:02;;;;;;;102.95;44.70;;;26.20;2201.60;;;;;;5035063;28;20494;-59
2021/01/12 00:44:28;;;;;;;97.88;42.35;;;26.20;2201.60;;;;;;5034961;28;20021;-59
2021/01/12 00:46:54;;;;;;;113.40;51.58;;;26.20;2201.60;;;;;;5034779;28;20037;-59
2021/01/12 00:49:22;;;;;;;109.93;52.55;;;26.20;2201.60;;;;;;5034941;28;20032;-59
2021/01/12 00:51:48;;;;;;;95.75;45.20;;;26.30;2201.60;;;;;;5034496;28;20028;-59
2021/01/12 00:54:14;;;;;;;114.75;49.40;;;26.20;2201.60;;;;;;5035086;28;20362;-59
2021/01/12 00:56:41;;;;;;;93.85;40.40;;;26.30;2201.60;;;;;;5034851;28;20474;-59
2021/01/12 00:59:07;;;;;;;72.60;32.08;;;26.20;2201.60;;;;;;5034812;28;20108;-60
2021/01/12 01:01:33;;;;;;;76.82;34.17;;;26.20;2201.60;;;;;;5034702;28;20108;-59
2021/01/12 01:04:00;;;;;;;146.35;67.53;;;26.10;2201.60;;;;;;5034526;28;20026;-59
2021/01/12 01:06:26;;;;;;;159.13;71.65;;;26.00;2201.60;;;;;;5034346;28;20090;-59
2021/01/12 01:08:52;;;;;;;82.85;38.10;;;26.10;2201.60;;;;;;5034425;28;20025;-59
2021/01/12 01:11:19;;;;;;;87.57;40.55;;;26.20;2201.60;;;;;;5034399;28;20048;-59
2021/01/12 01:13:46;;;;;;;114.15;51.65;;;26.20;2201.60;;;;;;5034489;28;20033;-59
2021/01/12 01:16:11;;;;;;;168.93;76.32;;;26.20;2201.60;;;;;;5033150;28;20060;-59
2021/01/12 01:18:38;;;;;;;137.95;60.38;;;26.20;2201.60;;;;;;5034347;28;20025;-59
2021/01/12 01:21:04;;;;;;;89.25;41.03;;;26.20;2201.60;;;;;;5034497;28;20072;-59
2021/01/12 01:23:30;;;;;;;97.00;43.70;;;26.20;2201.60;;;;;;5034181;28;20055;-59
2021/01/12 01:25:56;;;;;;;87.72;38.47;;;26.20;2201.60;;;;;;5034279;28;20045;-59
2021/01/12 01:28:23;;;;;;;92.03;41.80;;;26.20;2201.60;;;;;;5034522;28;20475;-59
2021/01/12 01:30:49;;;;;;;117.07;53.03;;;26.30;2201.60;;;;;;5034174;28;20406;-59
2021/01/12 01:33:15;;;;;;;95.18;42.10;;;26.30;2201.60;;;;;;5034387;28;20057;-58
2021/01/12 01:35:44;;;;;;;110.35;50.70;;;26.30;2201.60;;;;;;5034335;28;20029;-58
2021/01/12 01:38:10;;;;;;;92.75;43.80;;;26.20;2201.60;;;;;;5034348;28;20029;-58
2021/01/12 01:40:36;;;;;;;104.72;48.97;;;26.40;2201.60;;;;;;5034083;28;20036;-59
2021/01/12 01:43:03;;;;;;;118.55;52.67;;;26.30;2201.60;;;;;;5033988;28;20398;-58
2021/01/12 01:45:29;;;;;;;91.30;40.85;;;26.30;2201.60;;;;;;5034052;28;20029;-58
2021/01/12 01:47:54;;;;;;;147.05;67.47;;;26.30;2201.60;;;;;;5033594;28;20360;-58
2021/01/12 01:50:23;;;;;;;107.18;48.38;;;26.30;2201.60;;;;;;5033999;28;20418;-58
2021/01/12 01:52:54;;;;;;;123.95;54.85;;;26.30;2201.60;;;;;;5033991;28;20104;-58
2021/01/12 01:55:21;;;;;;;102.40;47.47;;;26.30;2201.60;;;;;;5033990;28;20033;-58
2021/01/12 01:57:47;;;;;;;107.97;50.63;;;26.30;2201.60;;;;;;5033791;28;20017;-58
2021/01/12 02:00:16;;;;;;;93.28;43.92;;;26.20;2201.60;;;;;;5033742;28;20025;-59
2021/01/12 02:03:07;;;;;;;93.78;40.53;;;26.30;2201.60;;;;;;5032798;28;20514;-58
2021/01/12 02:05:36;;;;;;;114.72;53.00;;;26.30;2201.60;;;;;;5033684;28;20052;-58
2021/01/12 02:08:22;;;;;;;98.00;44.70;;;26.20;2201.60;;;;;;5015870;28;20033;-58
2021/01/12 02:10:50;;;;;;;93.43;43.03;;;26.30;2201.60;;;;;;5033813;28;20026;-58
2021/01/12 02:13:22;;;;;;;81.20;36.10;;;26.20;2201.60;;;;;;5033622;28;20029;-58
2021/01/12 02:15:48;;;;;;;78.22;35.17;;;26.20;2201.60;;;;;;5033830;28;20041;-59
2021/01/12 02:18:14;;;;;;;81.95;37.47;;;26.10;2201.60;;;;;;5033760;28;20022;-58
2021/01/12 02:20:42;;;;;;;84.75;37.85;;;26.10;2201.60;;;;;;5033767;28;20021;-58
2021/01/12 02:23:15;;;;;;;107.20;48.97;;;26.10;2201.60;;;;;;5033536;28;20087;-58
2021/01/12 02:25:41;;;;;;;98.20;43.05;;;26.20;2201.60;;;;;;5033590;28;20044;-58
2021/01/12 02:28:12;;;;;;;81.07;36.88;;;26.20;2201.60;;;;;;5033600;28;20065;-58
2021/01/12 02:30:38;;;;;;;81.78;36.38;;;26.20;2201.60;;;;;;5033713;28;20036;-59
2021/01/12 02:33:05;;;;;;;81.18;37.13;;;26.20;2201.60;;;;;;5032696;28;20054;-59
2021/01/12 02:35:33;;;;;;;88.50;39.08;;;26.30;2201.60;;;;;;5032922;28;20029;-59
2021/01/12 02:38:01;;;;;;;82.28;37.03;;;26.20;2201.60;;;;;;5032692;28;20040;-59
2021/01/12 02:40:27;;;;;;;86.40;39.78;;;26.20;2201.60;;;;;;5032236;28;20031;-59
2021/01/12 02:42:53;;;;;;;88.82;38.13;;;26.20;2201.60;;;;;;5032505;28;20124;-59
2021/01/12 02:45:19;;;;;;;79.13;36.90;;;26.20;2201.60;;;;;;5032589;28;20025;-59
2021/01/12 02:47:45;;;;;;;78.20;35.28;;;26.30;2201.60;;;;;;5032365;28;20183;-59
2021/01/12 02:50:15;;;;;;;80.78;35.60;;;26.20;2201.60;;;;;;5032428;28;20426;-59
2021/01/12 02:52:45;;;;;;;80.28;36.50;;;26.20;2201.60;;;;;;5031412;28;20059;-58
2021/01/12 02:55:12;;;;;;;82.05;37.22;;;26.20;2201.60;;;;;;5032525;28;20211;-59
2021/01/12 02:57:38;;;;;;;79.45;37.33;;;26.20;2201.60;;;;;;5031968;28;20022;-59
2021/01/12 03:00:09;;;;;;;89.53;40.58;;;26.20;2201.60;;;;;;5032173;28;20423;-59
2021/01/12 03:02:35;;;;;;;84.63;39.00;;;26.20;2201.60;;;;;;5032199;28;20025;-58
2021/01/12 03:05:01;;;;;;;92.78;40.85;;;26.30;2201.60;;;;;;5031918;28;20025;-58
2021/01/12 03:07:26;;;;;;;84.15;39.45;;;26.30;2201.60;;;;;;5032161;28;20107;-59
2021/01/12 03:09:52;;;;;;;85.93;38.17;;;26.20;2201.60;;;;;;5032240;28;20018;-59
2021/01/12 03:12:18;;;;;;;81.97;37.60;;;26.20;2201.60;;;;;;5032272;28;20037;-59
2021/01/12 03:14:44;;;;;;;82.63;37.53;;;26.20;2201.60;;;;;;5033574;28;20022;-59
2021/01/12 03:17:10;;;;;;;80.93;37.65;;;26.20;2201.60;;;;;;5035576;28;20489;-59
2021/01/12 03:19:36;;;;;;;83.72;40.45;;;26.20;2201.60;;;;;;5035468;28;20028;-59
2021/01/12 03:22:03;;;;;;;86.13;41.00;;;26.20;2201.60;;;;;;5035495;28;20026;-58
2021/01/12 03:24:29;;;;;;;87.20;42.03;;;26.20;2201.60;;;;;;5035257;28;20025;-59
2021/01/12 03:26:54;;;;;;;83.43;37.20;;;26.20;2201.60;;;;;;5035083;28;20033;-59
2021/01/12 03:29:20;;;;;;;86.20;38.05;;;26.20;2201.60;;;;;;5035147;28;20375;-58
2021/01/12 03:31:46;;;;;;;85.72;38.95;;;26.20;2201.60;;;;;;5002365;28;935322;-59
2021/01/12 03:34:12;;;;;;;86.25;37.28;;;26.20;2201.60;;;;;;5036286;28;20033;-58
2021/01/12 03:36:37;;;;;;;88.80;38.60;;;26.20;2201.60;;;;;;5036217;28;20112;-59
2021/01/12 03:39:04;;;;;;;91.68;40.50;;;26.20;2201.60;;;;;;5036388;28;20156;-59
2021/01/12 03:41:31;;;;;;;87.35;39.15;;;26.30;2201.60;;;;;;5036212;28;20041;-59
2021/01/12 03:43:58;;;;;;;90.68;40.55;;;26.20;2201.60;;;;;;5036243;28;20383;-58
2021/01/12 03:46:24;;;;;;;90.10;40.03;;;26.10;2201.60;;;;;;5036056;28;20055;-59
2021/01/12 03:48:50;;;;;;;90.47;40.25;;;26.10;2201.60;;;;;;5035959;28;20017;-59
2021/01/12 03:51:15;;;;;;;94.53;41.10;;;26.10;2201.60;;;;;;5036563;28;20069;-59
2021/01/12 03:53:41;;;;;;;91.03;40.55;;;26.10;2201.60;;;;;;5035974;28;20032;-59
2021/01/12 03:56:07;;;;;;;85.25;40.75;;;26.10;2201.60;;;;;;5035958;28;20060;-59
2021/01/12 03:58:32;;;;;;;89.57;39.45;;;26.10;2201.60;;;;;;5035667;28;20030;-58
2021/01/12 04:00:58;;;;;;;86.00;40.30;;;26.10;2201.60;;;;;;5035947;28;20053;-59
2021/01/12 04:03:27;;;;;;;100.93;43.50;;;26.20;2201.60;;;;;;5035947;28;20030;-59
2021/01/12 04:05:53;;;;;;;101.00;44.22;;;26.20;2201.60;;;;;;5035821;28;20041;-58
2021/01/12 04:08:18;;;;;;;120.60;50.00;;;26.10;2201.60;;;;;;5035699;28;20095;-59
2021/01/12 04:10:44;;;;;;;114.88;46.42;;;26.20;2201.60;;;;;;5035836;28;20036;-58
2021/01/12 04:13:10;;;;;;;102.00;45.60;;;26.10;2201.60;;;;;;5035966;28;20394;-59
2021/01/12 04:15:35;;;;;;;104.63;44.65;;;26.10;2201.60;;;;;;5035136;28;20124;-59
2021/01/12 04:18:01;;;;;;;98.85;43.53;;;26.20;2201.60;;;;;;5035419;28;20018;-59
2021/01/12 04:20:27;;;;;;;89.93;41.08;;;26.20;2201.60;;;;;;5035645;28;20033;-59
2021/01/12 04:22:53;;;;;;;94.85;43.13;;;26.20;2201.60;;;;;;5035643;28;20091;-59
2021/01/12 04:25:19;;;;;;;93.97;42.17;;;26.10;2201.60;;;;;;5035271;28;20039;-59
2021/01/12 04:27:45;;;;;;;95.97;42.55;;;26.20;2201.60;;;;;;5034671;28;20042;-58
2021/01/12 04:30:12;;;;;;;102.18;45.83;;;26.10;2201.60;;;;;;5035446;28;20032;-58
2021/01/12 04:32:37;;;;;;;91.80;42.40;;;26.10;2201.60;;;;;;5035130;28;20450;-59
2021/01/12 04:35:04;;;;;;;97.03;44.22;;;26.10;2201.60;;;;;;5035374;28;20084;-59
2021/01/12 04:37:29;;;;;;;90.03;41.65;;;26.10;2201.60;;;;;;5034860;28;20032;-59
2021/01/12 04:39:55;;;;;;;93.78;42.63;;;26.20;2201.60;;;;;;5035043;28;20382;-58
2021/01/12 04:42:21;;;;;;;89.68;39.95;;;26.40;2201.60;;;;;;5034759;28;20116;-58
2021/01/12 04:44:46;;;;;;;85.65;39.72;;;26.10;2201.60;;;;;;5034882;28;20025;-58
2021/01/12 04:47:12;;;;;;;85.38;38.25;;;25.90;2201.60;;;;;;5035045;28;20048;-58
2021/01/12 04:49:38;;;;;;;83.85;39.00;;;26.10;2201.60;;;;;;5035075;28;20386;-59
2021/01/12 04:52:04;;;;;;;84.00;37.53;;;26.00;2201.60;;;;;;5035189;28;20078;-58
2021/01/12 04:54:34;;;;;;;76.82;35.70;;;26.00;2201.60;;;;;;5034905;28;20045;-59
2021/01/12 04:57:01;;;;;;;83.43;37.05;;;26.00;2201.60;;;;;;5034521;28;20041;-58
2021/01/12 04:59:31;;;;;;;79.90;35.65;;;26.00;2201.60;;;;;;5034657;28;20410;-59
2021/01/12 05:01:57;;;;;;;80.72;37.08;;;26.10;2201.60;;;;;;5034757;28;20387;-61
2021/01/12 05:04:23;;;;;;;80.20;36.15;;;26.00;2201.60;;;;;;5016553;28;20455;-59
2021/01/12 05:06:49;;;;;;;79.20;35.88;;;26.10;2201.60;;;;;;5034593;28;20057;-59
2021/01/12 05:09:22;;;;;;;73.40;33.35;;;26.00;2201.60;;;;;;5016132;28;20387;-59
2021/01/12 05:11:48;;;;;;;78.63;36.65;;;26.10;2201.60;;;;;;5034508;28;20057;-59
2021/01/12 05:14:16;;;;;;;80.43;35.58;;;26.10;2201.60;;;;;;5034629;28;20103;-60
2021/01/12 05:16:49;;;;;;;76.10;34.13;;;26.00;2201.60;;;;;;5034512;28;20033;-59
2021/01/12 05:19:22;;;;;;;74.13;33.90;;;26.00;2201.60;;;;;;5034312;28;20017;-59
2021/01/12 05:21:49;;;;;;;73.25;33.45;;;26.00;2201.60;;;;;;5034411;28;20387;-59
2021/01/12 05:24:19;;;;;;;77.55;33.78;;;26.00;2201.60;;;;;;5034269;28;20021;-59
2021/01/12 05:26:46;;;;;;;71.60;33.45;;;26.00;2201.60;;;;;;5034289;28;20497;-59
2021/01/12 05:29:12;;;;;;;72.72;34.13;;;26.10;2201.60;;;;;;5034298;28;20110;-60
2021/01/12 05:31:38;;;;;;;76.75;34.65;;;26.10;2201.60;;;;;;5033995;28;20442;-59
2021/01/12 05:34:05;;;;;;;80.30;36.53;;;26.10;2201.60;;;;;;5033914;28;20036;-60
2021/01/12 05:36:33;;;;;;;92.13;40.85;;;26.00;2201.60;;;;;;5016491;28;20425;-59
2021/01/12 05:39:00;;;;;;;89.80;38.67;;;26.00;2201.60;;;;;;5033982;28;20021;-59
2021/01/12 05:41:28;;;;;;;82.30;37.75;;;26.00;2201.60;;;;;;5034144;28;20059;-59
2021/01/12 05:43:56;;;;;;;118.43;52.33;;;26.10;2201.60;;;;;;5033802;28;20022;-59
2021/01/12 05:46:22;;;;;;;116.43;52.03;;;26.00;2201.60;;;;;;5033786;28;20407;-59
2021/01/12 05:48:48;;;;;;;118.07;55.13;;;26.10;2201.60;;;;;;5033723;28;20036;-59
2021/01/12 05:51:15;;;;;;;111.05;49.00;;;26.10;2201.60;;;;;;5034008;28;20029;-59
2021/01/12 05:53:59;;;;;;;159.98;80.80;;;26.00;2201.60;;;;;;5033767;28;20055;-59
2021/01/12 05:56:27;;;;;;;137.02;65.00;;;26.00;2201.60;;;;;;5034043;28;20030;-59
2021/01/12 05:58:57;;;;;;;106.20;50.45;;;26.10;2201.60;;;;;;5034070;28;20033;-59
2021/01/12 06:01:45;;;;;;;136.15;65.00;;;26.10;2201.60;;;;;;5015931;28;20021;-59
2021/01/12 06:04:12;;;;;;;195.45;99.10;;;26.10;2201.60;;;;;;5033900;28;20156;-60
2021/01/12 06:06:39;;;;;;;140.75;63.78;;;26.10;2201.60;;;;;;5033751;28;20038;-59
2021/01/12 06:09:06;;;;;;;140.73;62.17;;;26.10;2201.60;;;;;;5015857;28;20552;-59
2021/01/12 06:11:37;;;;;;;153.75;68.22;;;26.10;2201.60;;;;;;5033816;28;20022;-60
2021/01/12 06:14:11;;;;;;;140.00;62.70;;;26.10;2201.60;;;;;;5033665;28;20040;-59
2021/01/12 06:16:38;;;;;;;130.02;57.33;;;26.10;2201.60;;;;;;5033632;28;20017;-59
2021/01/12 06:19:20;;;;;;;169.73;82.03;;;26.00;2201.60;;;;;;5033746;28;20113;-59
2021/01/12 06:21:55;;;;;;;122.47;56.35;;;26.10;2201.60;;;;;;5033469;28;20053;-59
2021/01/12 06:24:42;;;;;;;206.27;98.72;;;26.10;2201.60;;;;;;5033706;28;20384;-60
2021/01/12 06:27:14;;;;;;;138.93;58.53;;;26.10;2201.60;;;;;;5033572;28;20096;-59
2021/01/12 06:29:41;;;;;;;150.73;63.30;;;26.10;2201.60;;;;;;5033553;28;20367;-59
2021/01/12 06:32:07;;;;;;;114.43;50.13;;;26.10;2201.60;;;;;;5033316;28;20072;-59
2021/01/12 06:34:33;;;;;;;134.68;56.65;;;26.10;2201.60;;;;;;5033405;28;20079;-59
2021/01/12 06:37:03;;;;;;;133.57;56.55;;;26.10;2201.60;;;;;;5033337;28;20021;-58
2021/01/12 06:39:43;;;;;;;121.45;53.17;;;26.10;2201.60;;;;;;5033059;28;20025;-60
2021/01/12 06:42:14;;;;;;;131.75;57.95;;;26.20;2201.60;;;;;;5033749;28;20026;-59
2021/01/12 06:44:40;;;;;;;198.27;82.30;;;26.20;2201.60;;;;;;5033519;28;20029;-58
2021/01/12 06:47:08;;;;;;;155.07;63.75;;;26.20;2201.60;;;;;;5033255;28;20053;-57
2021/01/12 06:49:34;;;;;;;182.18;72.88;;;26.20;2201.60;;;;;;5034734;28;20021;-57
2021/01/12 06:52:08;;;;;;;140.10;58.70;;;26.30;2201.60;;;;;;5037185;28;20037;-57
2021/01/12 06:54:38;;;;;;;165.80;67.65;;;26.20;2201.60;;;;;;5037285;28;20026;-57
2021/01/12 06:57:10;;;;;;;182.75;72.40;;;26.20;2201.60;;;;;;5037175;28;20040;-57
2021/01/12 06:59:45;;;;;;;287.15;113.15;;;26.30;2201.60;;;;;;5037087;28;20037;-57
2021/01/12 07:02:14;;;;;;;;;;;26.30;2201.60;;;;;;5037357;28;20068;-57
2021/01/12 07:04:39;;;;;;;201.90;82.45;;;26.40;2201.60;;;;;;5036796;28;19905;-57
2021/01/12 07:07:06;;;;;;;186.65;81.53;;;26.40;2201.60;;;;;;5036864;28;20037;-57
2021/01/12 07:09:32;;;;;;;127.32;58.70;;;26.40;2201.60;;;;;;5036785;28;20052;-58
2021/01/12 07:12:10;;;;;;;167.10;73.00;;;26.50;2201.60;;;;;;5036289;28;20083;-58
2021/01/12 07:15:07;;;;;;;243.07;93.60;;;26.50;2201.60;;;;;;5036794;28;20021;-57
2021/01/12 07:17:44;;;;;;;127.32;56.53;;;26.50;2201.60;;;;;;4995116;28;20045;-57
2021/01/12 07:20:13;;;;;;;134.45;58.53;;;26.50;2201.60;;;;;;4995078;28;20142;-57
2021/01/12 07:22:41;;;;;;;140.45;61.00;;;51.20;2227.20;;;;;;4995003;28;20041;-57
2021/01/12 07:25:09;;;;;;;96.55;46.00;;;51.20;2227.20;;;;;;4995086;28;20384;-57
2021/01/12 07:27:36;;;;;;;124.10;55.47;;;51.30;2227.20;;;;;;4994931;28;20097;-57
2021/01/12 07:30:05;;;;;;;128.18;57.28;;;51.30;2227.20;;;;;;4995144;28;20559;-57
2021/01/12 07:32:38;;;;;;;185.90;74.45;;;51.20;2227.20;;;;;;4994803;28;20046;-57
2021/01/12 07:35:09;;;;;;;170.70;66.95;;;51.30;2227.20;;;;;;4994965;28;20045;-57
2021/01/12 07:37:37;;;;;;;121.35;49.15;;;51.40;2227.20;;;;;;4994865;28;20053;-58
2021/01/12 07:40:04;;;;;;;109.65;50.53;;;51.40;2227.20;;;;;;4994912;28;20034;-58
2021/01/12 07:42:30;;;;;;;108.03;49.30;;;51.50;2227.20;;;;;;4994923;28;20081;-58
2021/01/12 07:44:56;;;;;;;94.68;43.28;;;51.50;2227.20;;;;;;4978446;28;20026;-58
2021/01/12 07:47:22;;;;;;;89.10;41.78;;;51.60;2227.20;;;;;;4994518;28;20042;-57
2021/01/12 07:49:50;;;;;;;226.82;79.57;;;51.60;2227.20;;;;;;4994709;28;20424;-58
2021/01/12 07:52:18;;;;;;;193.82;81.13;;;51.60;2227.20;;;;;;4994582;28;20076;-58
2021/01/12 07:54:45;;;;;;;132.00;58.25;;;51.60;2227.20;;;;;;5029372;28;20033;-59
2021/01/12 07:57:12;;;;;;;125.82;57.70;;;51.60;2227.20;;;;;;5036162;28;20026;-60
2021/01/12 07:59:38;;;;;;;124.68;60.30;;;52.10;2227.20;;;;;;5035860;28;20530;-58
2021/01/12 08:02:07;;;;;;;138.20;63.60;;;51.40;2227.20;;;;;;5035784;28;20025;-58
2021/01/12 08:04:33;;;;;;;226.70;95.40;;;51.50;2227.20;;;;;;5035623;28;20057;-57
2021/01/12 08:07:00;;;;;;;180.55;77.10;;;51.50;2227.20;;;;;;5035578;28;20068;-60
2021/01/12 08:09:26;;;;;;;117.00;52.58;;;51.40;2227.20;;;;;;5035754;28;20480;-60
2021/01/12 08:11:58;;;;;;;122.15;56.10;;;51.30;2227.20;;;;;;5035568;28;20025;-60
2021/01/12 08:14:25;;;;;;;125.63;59.97;;;26.50;2201.60;;;;;;5035561;28;20406;-60
2021/01/12 08:16:52;;;;;;;108.95;47.60;;;26.50;2201.60;;;;;;5035015;28;20391;-61
2021/01/12 08:19:25;;;;;;;109.88;45.88;;;51.20;2227.20;;;;;;5035450;28;20032;-60
2021/01/12 08:21:53;;;;;;;153.93;63.42;;;26.50;2201.60;;;;;;5035513;28;20031;-60
2021/01/12 08:24:23;;;;;;;162.90;67.40;;;26.50;2201.60;;;;;;5035172;28;20021;-60
2021/01/12 08:26:50;;;;;;;160.55;63.42;;;26.40;2201.60;;;;;;5035324;28;20095;-61
2021/01/12 08:29:26;;;;;;;164.63;63.03;;;26.50;2201.60;;;;;;5035521;28;20032;-60
2021/01/12 08:31:58;;;;;;;169.13;70.38;;;26.20;2201.60;;;;;;5035320;28;20136;-60
2021/01/12 08:34:25;;;;;;;150.55;60.55;;;26.20;2201.60;;;;;;5017590;28;20025;-59
2021/01/12 08:36:53;;;;;;;163.23;68.78;;;26.20;2201.60;;;;;;5035287;28;20033;-59
2021/01/12 08:39:21;;;;;;;146.85;62.05;;;26.30;2201.60;;;;;;5035218;28;20076;-60
2021/01/12 08:41:48;;;;;;;140.38;60.05;;;26.10;2201.60;;;;;;5035104;28;20033;-60
2021/01/12 08:44:16;;;;;;;167.20;72.13;;;26.10;2201.60;;;;;;5035196;28;20044;-61
2021/01/12 08:46:45;;;;;;;263.33;114.93;;;26.30;2201.60;;;;;;5034791;28;20046;-59
2021/01/12 08:49:11;;;;;;;182.48;82.85;;;26.40;2201.60;;;;;;5034749;28;20036;-59
2021/01/12 08:51:38;;;;;;;176.35;77.70;;;26.50;2201.60;;;;;;5016754;28;20029;-59
2021/01/12 08:54:04;;;;;;;167.27;75.00;;;51.20;2227.20;;;;;;5034758;28;20494;-60
2021/01/12 08:56:30;;;;;;;167.32;76.00;;;26.50;2201.60;;;;;;5017135;28;20036;-59
2021/01/12 08:59:06;;;;;;;180.20;84.55;;;51.20;2227.20;;;;;;5016549;28;20033;-59
2021/01/12 09:01:32;;;;;;;258.95;117.32;;;51.40;2227.20;;;;;;5034646;28;20025;-59
2021/01/12 09:04:02;;;;;;;213.93;103.80;;;51.50;2227.20;;;;;;5034403;28;20052;-59
2021/01/12 09:06:28;;;;;;;125.28;56.45;;;51.50;2227.20;;;;;;5034687;28;20107;-59
2021/01/12 09:09:11;;;;;;;112.85;51.70;;;51.60;2227.20;;;;;;5034299;28;20419;-60
2021/01/12 09:11:39;;;;;;;120.30;53.63;;;51.60;2227.20;;;;;;5034364;28;20045;-59
2021/01/12 09:14:06;;;;;;;121.93;55.30;;;51.80;2227.20;;;;;;5016307;28;20033;-59
2021/01/12 09:16:33;;;;;;;124.57;56.45;;;51.90;2227.20;;;;;;5016806;28;20387;-57
2021/01/12 09:18:59;;;;;;;159.55;75.63;;;52.10;2227.20;;;;;;5034618;28;20033;-58
2021/01/12 09:21:25;;;;;;;154.77;75.88;;;76.90;2227.20;;;;;;5034403;28;20095;-58
2021/01/12 09:23:50;;;;;;;166.52;80.80;;;77.10;2227.20;;;;;;5034156;28;20057;-57
2021/01/12 09:26:19;;;;;;;108.57;51.38;;;77.30;2227.20;;;;;;5033774;28;20041;-58
2021/01/12 09:28:45;;;;;;;102.82;49.45;;;77.30;2227.20;;;;;;5032897;28;20360;-58
2021/01/12 09:31:13;;;;;;;113.20;54.70;;;77.50;2227.20;;;;;;5034066;28;20060;-58
2021/01/12 09:33:44;;;;;;;365.17;156.38;;;77.60;2227.20;;;;;;5034229;28;20034;-58
2021/01/12 09:36:15;;;;;;;337.20;134.10;;;77.70;2227.20;;;;;;5034201;28;20029;-58
2021/01/12 09:38:45;;;;;;;313.17;132.27;;;102.40;2201.60;;;;;;5034129;28;20026;-58
2021/01/12 09:41:12;;;;;;;316.45;150.20;;;102.50;2176.00;;;;;;5034070;28;20520;-57
2021/01/12 09:43:39;;;;;;;110.55;54.15;;;102.60;2176.00;;;;;;5034118;28;20076;-57
2021/01/12 09:46:05;;;;;;;163.30;60.42;;;102.70;2150.40;;;;;;5034246;28;20113;-60
2021/01/12 09:48:31;;;;;;;92.03;41.42;;;102.60;2124.80;;;;;;5034611;28;20021;-59
2021/01/12 09:50:57;;;;;;;149.80;62.38;;;102.40;2150.40;;;;;;5034110;28;20028;-61
2021/01/12 09:53:23;;;;;;;172.07;70.93;;;102.50;2150.40;;;;;;5033407;28;20482;-59
2021/01/12 09:55:49;;;;;;;197.75;77.45;;;102.60;2124.80;;;;;;5033861;28;20100;-57
2021/01/12 09:58:15;;;;;;;203.80;93.65;;;102.60;2099.20;;;;;;5033750;28;20164;-57
2021/01/12 10:00:41;;;;;;;153.18;72.75;;;102.60;2124.80;;;;;;5033547;28;20045;-58
2021/01/12 10:03:07;;;;;;;104.00;51.20;;;102.70;2124.80;;;;;;5034007;28;20025;-57
2021/01/12 10:05:40;;;;;;;121.75;54.83;;;102.70;2073.60;;;;;;5033795;28;20026;-60
2021/01/12 10:08:07;;;;;;;92.57;44.95;;;102.70;2099.20;;;;;;5033243;28;20048;-58
2021/01/12 10:10:34;;;;;;;99.07;47.15;;;102.60;2099.20;;;;;;5033179;28;20018;-57
2021/01/12 10:13:00;;;;;;;136.50;65.18;;;102.60;2124.80;;;;;;5033350;28;20495;-57
2021/01/12 10:15:26;;;;;;;121.35;60.83;;;102.60;2099.20;;;;;;5033601;28;20025;-58
2021/01/12 10:17:52;;;;;;;125.35;57.85;;;102.70;2099.20;;;;;;5033665;28;20025;-61
2021/01/12 10:20:18;;;;;;;119.70;53.88;;;102.70;2073.60;;;;;;5033392;28;20021;-58
2021/01/12 10:22:44;;;;;;;95.05;47.33;;;102.90;2073.60;;;;;;5033560;28;20075;-58
2021/01/12 10:25:11;;;;;;;89.72;43.45;;;103.10;2073.60;;;;;;5035982;28;20085;-57
2021/01/12 10:27:38;;;;;;;86.43;42.42;;;103.20;2022.40;;;;;;5037500;28;20091;-58
2021/01/12 10:30:05;;;;;;;148.43;69.20;;;103.20;1996.80;;;;;;5037972;28;20375;-58
2021/01/12 10:32:32;;;;;;;99.03;47.05;;;103.30;1996.80;;;;;;5037395;28;20057;-57
2021/01/12 10:34:57;;;;;;;97.18;47.40;;;103.30;1971.20;;;;;;5037474;28;20028;-57
2021/01/12 10:37:23;;;;;;;120.03;58.03;;;128.00;1996.80;;;;;;5037196;28;20030;-57
2021/01/12 10:39:49;;;;;;;190.23;94.60;;;103.30;1971.20;;;;;;5037021;28;20498;-57
2021/01/12 10:42:15;;;;;;;157.75;83.00;;;103.10;1996.80;;;;;;5038056;28;20018;-57
2021/01/12 10:44:41;;;;;;;201.93;118.85;;;103.10;1996.80;;;;;;5037455;28;20037;-58
2021/01/12 10:47:07;;;;;;;109.03;51.97;;;102.70;2022.40;;;;;;5037022;28;20045;-57
2021/01/12 10:49:32;;;;;;;320.23;165.48;;;102.80;2022.40;;;;;;5037191;28;20037;-58
2021/01/12 10:52:06;;;;;;;212.20;113.13;;;102.60;2048.00;;;;;;5037121;28;20072;-58
2021/01/12 10:54:32;;;;;;;150.68;75.63;;;102.60;2048.00;;;;;;5036932;28;20036;-58
2021/01/12 10:56:59;;;;;;;120.35;57.67;;;102.60;2048.00;;;;;;5036793;28;20459;-58
2021/01/12 10:59:27;;;;;;;131.95;63.95;;;102.50;2073.60;;;;;;5037270;28;20030;-58
2021/01/12 11:01:58;;;;;;;104.07;51.15;;;102.60;2048.00;;;;;;5036963;28;20095;-57
2021/01/12 11:04:24;;;;;;;111.57;58.60;;;102.60;2048.00;;;;;;5037145;28;20037;-58
2021/01/12 11:06:58;;;;;;;77.70;39.33;;;102.60;1996.80;;;;;;5036850;28;20040;-58
2021/01/12 11:09:25;;;;;;;107.55;53.50;;;102.60;1996.80;;;;;;5036796;28;20032;-60
2021/01/12 11:11:51;;;;;;;255.88;138.88;;;102.90;1996.80;;;;;;5036934;28;20028;-61
2021/01/12 11:14:18;;;;;;;254.23;132.95;;;102.80;1996.80;;;;;;5036832;28;20029;-58
2021/01/12 11:16:45;;;;;;;145.27;74.70;;;102.70;2022.40;;;;;;5036658;28;20029;-61
2021/01/12 11:19:11;;;;;;;133.35;65.72;;;102.80;2022.40;;;;;;5036838;28;20104;-58
2021/01/12 11:21:45;;;;;;;147.60;81.40;;;103.00;1996.80;;;;;;5036726;28;20075;-58
2021/01/12 11:24:13;;;;;;;186.70;91.72;;;102.90;1996.80;;;;;;5036568;28;20029;-58
2021/01/12 11:26:40;;;;;;;154.95;76.07;;;102.90;2022.40;;;;;;5036449;28;20033;-58
2021/01/12 11:29:06;;;;;;;175.93;93.30;;;102.70;2073.60;;;;;;5036464;28;20091;-60
2021/01/12 11:31:32;;;;;;;97.35;48.03;;;102.80;2048.00;;;;;;5036372;28;20045;-60
2021/01/12 11:33:58;;;;;;;120.90;60.40;;;103.00;1996.80;;;;;;5036482;28;20025;-60
2021/01/12 11:36:24;;;;;;;213.68;107.60;;;103.00;1996.80;;;;;;5018241;28;20091;-62
2021/01/12 11:38:49;;;;;;;127.93;63.80;;;102.70;2048.00;;;;;;5036234;28;20467;-58
2021/01/12 11:41:15;;;;;;;107.88;53.00;;;102.70;2048.00;;;;;;5036371;28;20061;-58
2021/01/12 11:43:41;;;;;;;124.13;59.17;;;102.70;2048.00;;;;;;5036360;28;20105;-59
2021/01/12 11:46:08;;;;;;;136.25;60.42;;;102.80;2022.40;;;;;;5036064;28;20025;-57
2021/01/12 11:48:34;;;;;;;205.93;90.95;;;103.00;1996.80;;;;;;5036211;28;20026;-59
2021/01/12 11:51:00;;;;;;;190.40;90.65;;;103.10;1971.20;;;;;;5035421;28;20029;-59
2021/01/12 11:53:26;;;;;;;170.38;79.60;;;103.10;1996.80;;;;;;5036215;28;20029;-59
2021/01/12 11:55:54;;;;;;;109.95;56.83;;;102.90;2022.40;;;;;;5036115;28;20399;-58
2021/01/12 11:58:20;;;;;;;161.88;90.35;;;102.80;2022.40;;;;;;5036094;28;20034;-60
2021/01/12 12:00:45;;;;;;;172.13;86.45;;;102.80;2048.00;;;;;;5036568;28;20502;-59
2021/01/12 12:03:11;;;;;;;117.38;59.33;;;102.80;2048.00;;;;;;5036260;28;20517;-60